createdAt,value
2018-12-19T00:01:06.624Z,8.40
2018-12-19T00:03:35.884Z,10.43
2018-12-19T00:06:05.149Z,10.30
2018-12-19T00:08:34.545Z,11.08
2018-12-19T00:11:03.774Z,9.23
2018-12-19T00:13:32.947Z,8.20
2018-12-19T00:16:03.634Z,9.50
2018-12-19T00:18:33.213Z,7.72
2018-12-19T00:21:02.375Z,9.50
2018-12-19T00:23:31.619Z,9.48
2018-12-19T00:26:00.845Z,8.78
2018-12-19T00:28:30.132Z,9.45
2018-12-19T00:30:59.349Z,10.07
2018-12-19T00:33:28.731Z,9.30
2018-12-19T00:35:57.930Z,9.37
2018-12-19T00:38:27.099Z,12.13
2018-12-19T00:40:57.265Z,12.60
2018-12-19T00:43:26.463Z,9.90
2018-12-19T00:45:56.117Z,15.00
2018-12-19T00:48:25.384Z,11.80
2018-12-19T00:50:54.662Z,13.27
2018-12-19T00:53:23.912Z,7.93
2018-12-19T00:55:53.087Z,8.37
2018-12-19T00:58:22.303Z,8.10
2018-12-19T01:00:51.491Z,9.73
2018-12-19T01:03:20.701Z,10.50
2018-12-19T01:05:49.895Z,11.30
2018-12-19T01:08:19.129Z,9.40
2018-12-19T01:10:48.367Z,11.97
2018-12-19T01:13:17.602Z,13.67
2018-12-19T01:15:46.755Z,9.77
2018-12-19T01:18:16.001Z,9.10
2018-12-19T01:20:45.301Z,11.53
2018-12-19T01:23:14.502Z,9.93
2018-12-19T01:25:43.745Z,9.83
2018-12-19T01:28:12.975Z,11.47
2018-12-19T01:30:42.349Z,8.67
2018-12-19T01:33:11.535Z,9.33
2018-12-19T01:35:40.733Z,8.57
2018-12-19T01:38:09.882Z,8.57
2018-12-19T01:40:39.045Z,9.13
2018-12-19T01:43:08.833Z,10.50
2018-12-19T01:45:53.145Z,11.10
2018-12-19T01:48:22.389Z,10.60
2018-12-19T01:50:51.592Z,9.87
2018-12-19T01:53:20.858Z,9.87
2018-12-19T01:55:50.301Z,11.63
2018-12-19T01:58:19.528Z,12.80
2018-12-19T02:00:48.779Z,14.30
2018-12-19T02:03:18.007Z,14.90
2018-12-19T02:05:47.290Z,11.40
2018-12-19T02:08:16.487Z,12.03
2018-12-19T02:10:45.661Z,11.60
2018-12-19T02:13:14.929Z,10.67
2018-12-19T02:15:44.166Z,10.93
2018-12-19T02:18:13.375Z,10.37
2018-12-19T02:20:42.653Z,10.63
2018-12-19T02:23:11.852Z,11.30
2018-12-19T02:25:41.067Z,10.90
2018-12-19T02:28:10.254Z,12.00
2018-12-19T02:30:39.432Z,11.80
2018-12-19T02:33:08.687Z,11.37
2018-12-19T02:35:37.880Z,11.23
2018-12-19T02:38:07.157Z,10.50
2018-12-19T02:40:36.364Z,12.07
2018-12-19T02:43:05.583Z,12.30
2018-12-19T02:45:34.777Z,13.03
2018-12-19T02:48:03.971Z,11.43
2018-12-19T02:50:33.251Z,12.87
2018-12-19T02:53:02.522Z,13.77
2018-12-19T02:55:31.769Z,14.60
2018-12-19T02:58:00.996Z,15.20
2018-12-19T03:00:30.301Z,16.00
2018-12-19T03:02:59.561Z,16.97
2018-12-19T03:05:28.788Z,17.00
2018-12-19T03:07:58.029Z,18.10
2018-12-19T03:10:27.269Z,18.67
2018-12-19T03:12:56.886Z,19.20
2018-12-19T03:15:26.049Z,18.63
2018-12-19T03:17:55.244Z,19.13
2018-12-19T03:20:24.426Z,21.70
2018-12-19T03:22:53.739Z,20.27
2018-12-19T03:25:22.991Z,18.60
2018-12-19T03:27:52.274Z,18.50
2018-12-19T03:30:21.445Z,17.90
2018-12-19T03:32:50.663Z,15.87
2018-12-19T03:35:19.849Z,13.60
2018-12-19T03:37:49.005Z,14.27
2018-12-19T03:40:18.220Z,13.67
2018-12-19T03:42:47.785Z,13.87
2018-12-19T03:45:17.225Z,15.30
2018-12-19T03:47:46.453Z,14.13
2018-12-19T03:50:15.933Z,13.27
2018-12-19T03:52:45.148Z,15.80
2018-12-19T03:55:14.374Z,19.83
2018-12-19T03:57:43.680Z,19.77
2018-12-19T04:00:12.924Z,19.27
2018-12-19T04:02:42.121Z,20.17
2018-12-19T04:05:11.405Z,19.23
2018-12-19T04:07:40.606Z,17.07
2018-12-19T04:10:09.891Z,14.73
2018-12-19T04:12:39.102Z,13.50
2018-12-19T04:15:08.357Z,12.27
2018-12-19T04:17:37.571Z,12.03
2018-12-19T04:20:06.846Z,11.57
2018-12-19T04:22:36.013Z,11.27
2018-12-19T04:25:05.321Z,11.50
2018-12-19T04:27:34.581Z,12.30
2018-12-19T04:30:03.854Z,14.80
2018-12-19T04:32:33.173Z,13.60
2018-12-19T04:35:02.435Z,13.40
2018-12-19T04:37:31.683Z,12.63
2018-12-19T04:40:05.422Z,12.50
2018-12-19T04:42:32.497Z,11.83
2018-12-19T04:45:01.909Z,11.13
2018-12-19T04:47:33.352Z,10.87
2018-12-19T04:50:02.607Z,12.70
2018-12-19T04:52:31.774Z,11.27
2018-12-19T04:55:00.942Z,10.40
2018-12-19T04:57:30.236Z,10.83
2018-12-19T04:59:59.467Z,9.83
2018-12-19T05:02:28.673Z,9.93
2018-12-19T05:04:57.904Z,9.53
2018-12-19T05:07:27.118Z,8.10
2018-12-19T05:09:56.280Z,9.23
2018-12-19T05:12:25.497Z,7.97
2018-12-19T05:14:54.689Z,8.13
2018-12-19T05:17:23.882Z,10.40
2018-12-19T05:19:53.530Z,9.23
2018-12-19T05:22:22.755Z,9.20
2018-12-19T05:24:51.983Z,8.53
2018-12-19T05:27:21.190Z,8.73
2018-12-19T05:29:50.345Z,9.37
2018-12-19T05:32:19.524Z,10.17
2018-12-19T05:34:48.683Z,9.70
2018-12-19T05:37:17.868Z,9.97
2018-12-19T05:39:47.059Z,12.03
2018-12-19T05:42:16.275Z,10.70
2018-12-19T05:44:45.533Z,11.17
2018-12-19T05:47:15.090Z,9.70
2018-12-19T05:49:45.063Z,10.27
2018-12-19T05:52:14.277Z,9.73
2018-12-19T05:54:44.426Z,9.57
2018-12-19T05:57:13.895Z,9.13
2018-12-19T05:59:43.107Z,8.50
2018-12-19T06:02:12.313Z,8.40
2018-12-19T06:04:41.509Z,9.17
2018-12-19T06:07:11.716Z,8.60
2018-12-19T06:09:41.012Z,9.00
2018-12-19T06:12:10.223Z,8.63
2018-12-19T06:14:39.418Z,9.50
2018-12-19T06:17:08.608Z,8.50
2018-12-19T06:19:37.803Z,10.37
2018-12-19T06:22:07.020Z,10.10
2018-12-19T06:24:36.235Z,9.13
2018-12-19T06:27:05.518Z,7.70
2018-12-19T06:29:34.715Z,7.80
2018-12-19T06:32:03.974Z,9.17
2018-12-19T06:34:33.160Z,7.67
2018-12-19T06:37:02.464Z,7.53
2018-12-19T06:39:31.737Z,8.17
2018-12-19T06:42:01.088Z,7.63
2018-12-19T06:44:30.325Z,7.77
2018-12-19T06:47:00.074Z,8.27
2018-12-19T06:49:29.244Z,7.33
2018-12-19T06:51:59.868Z,8.43
2018-12-19T06:54:29.106Z,13.67
2018-12-19T06:56:58.339Z,11.77
2018-12-19T06:59:27.564Z,13.97
2018-12-19T07:01:56.825Z,15.43
2018-12-19T07:04:26.011Z,14.53
2018-12-19T07:06:55.183Z,12.47
2018-12-19T07:09:24.467Z,11.03
2018-12-19T07:11:53.671Z,12.17
2018-12-19T07:14:22.902Z,12.37
2018-12-19T07:16:52.262Z,13.63
2018-12-19T07:19:21.476Z,11.23
2018-12-19T07:21:50.736Z,12.00
2018-12-19T07:24:19.980Z,13.17
2018-12-19T07:26:49.209Z,11.97
2018-12-19T07:29:18.424Z,11.30
2018-12-19T07:31:47.579Z,11.50
2018-12-19T07:34:16.760Z,9.97
2018-12-19T07:36:45.993Z,9.37
2018-12-19T07:39:15.161Z,9.93
2018-12-19T07:41:44.401Z,8.07
2018-12-19T07:44:13.611Z,8.40
2018-12-19T07:46:42.830Z,10.23
2018-12-19T07:49:12.041Z,9.83
2018-12-19T07:51:41.214Z,11.47
2018-12-19T07:54:10.676Z,10.90
2018-12-19T07:56:39.868Z,10.40
2018-12-19T07:59:09.234Z,8.00
2018-12-19T08:01:38.484Z,8.47
2018-12-19T08:04:07.772Z,10.50
2018-12-19T08:06:36.981Z,9.17
2018-12-19T08:09:08.704Z,9.77
2018-12-19T08:11:37.866Z,10.77
2018-12-19T08:14:07.053Z,11.37
2018-12-19T08:16:36.228Z,9.90
2018-12-19T08:19:05.452Z,14.97
2018-12-19T08:21:34.710Z,14.47
2018-12-19T08:24:03.941Z,13.47
2018-12-19T08:26:33.142Z,15.17
2018-12-19T08:29:02.285Z,12.90
2018-12-19T08:31:31.813Z,12.97
2018-12-19T08:34:01.398Z,15.40
2018-12-19T08:36:30.688Z,13.33
2018-12-19T08:38:59.905Z,12.57
2018-12-19T08:41:29.126Z,11.53
2018-12-19T08:43:58.323Z,10.30
2018-12-19T08:46:27.538Z,11.33
2018-12-19T08:48:56.713Z,13.37
2018-12-19T08:51:26.042Z,10.07
2018-12-19T08:53:55.238Z,10.43
2018-12-19T08:56:25.538Z,10.73
2018-12-19T08:58:54.777Z,9.70
2018-12-19T09:01:24.020Z,10.77
2018-12-19T09:03:53.236Z,12.40
2018-12-19T09:06:22.409Z,14.57
2018-12-19T09:08:51.564Z,14.57
2018-12-19T09:11:20.847Z,14.80
2018-12-19T09:13:50.176Z,14.17
2018-12-19T09:16:19.374Z,12.33
2018-12-19T09:18:48.566Z,15.70
2018-12-19T09:21:19.719Z,14.73
2018-12-19T09:23:48.922Z,14.13
2018-12-19T09:26:18.130Z,14.17
2018-12-19T09:28:47.367Z,13.67
2018-12-19T09:31:16.614Z,16.10
2018-12-19T09:33:45.795Z,22.23
2018-12-19T09:36:15.036Z,18.87
2018-12-19T09:38:44.244Z,16.23
2018-12-19T09:41:13.466Z,17.17
2018-12-19T09:43:42.681Z,17.40
2018-12-19T09:46:11.827Z,17.97
2018-12-19T09:48:41.029Z,16.43
2018-12-19T09:51:10.237Z,17.97
2018-12-19T09:53:39.474Z,17.57
2018-12-19T09:56:08.686Z,20.00
2018-12-19T09:58:38.184Z,18.53
2018-12-19T10:01:07.397Z,19.97
2018-12-19T10:03:36.570Z,16.93
2018-12-19T10:06:05.801Z,19.13
2018-12-19T10:08:35.028Z,25.57
2018-12-19T10:11:04.246Z,21.57
2018-12-19T10:13:33.480Z,23.60
2018-12-19T10:16:04.163Z,25.17
2018-12-19T10:18:33.764Z,25.13
2018-12-19T10:21:02.940Z,27.27
2018-12-19T10:23:32.094Z,24.70
2018-12-19T10:26:06.618Z,26.17
2018-12-19T10:28:35.891Z,24.27
2018-12-19T10:31:05.206Z,24.23
2018-12-19T10:33:34.600Z,21.97
2018-12-19T10:36:03.825Z,21.47
2018-12-19T10:38:33.029Z,23.53
2018-12-19T10:41:02.205Z,24.80
2018-12-19T10:43:31.419Z,22.27
2018-12-19T10:46:00.592Z,21.93
2018-12-19T10:48:29.808Z,24.97
2018-12-19T10:50:59.045Z,28.17
2018-12-19T10:53:28.210Z,35.60
2018-12-19T10:55:57.412Z,28.53
2018-12-19T10:58:26.599Z,25.77
2018-12-19T11:01:00.721Z,28.20
2018-12-19T11:03:30.000Z,29.33
2018-12-19T11:05:59.232Z,26.80
2018-12-19T11:08:28.492Z,36.20
2018-12-19T11:10:57.717Z,32.53
2018-12-19T11:13:26.898Z,26.93
2018-12-19T11:15:56.133Z,30.27
2018-12-19T11:18:25.298Z,29.00
2018-12-19T11:20:54.663Z,30.57
2018-12-19T11:23:23.861Z,31.60
2018-12-19T11:25:53.059Z,32.53
2018-12-19T11:28:22.223Z,33.47
2018-12-19T11:30:51.444Z,37.20
2018-12-19T11:33:20.671Z,36.43
2018-12-19T11:35:49.877Z,31.27
2018-12-19T11:38:20.173Z,35.30
2018-12-19T11:40:49.339Z,36.47
2018-12-19T11:43:18.563Z,35.50
2018-12-19T11:45:47.838Z,32.93
2018-12-19T11:48:17.053Z,36.40
2018-12-19T11:50:46.241Z,35.07
2018-12-19T11:53:15.424Z,32.70
2018-12-19T11:55:44.594Z,35.83
2018-12-19T11:58:13.816Z,35.00
2018-12-19T12:00:43.057Z,39.07
2018-12-19T12:03:12.617Z,38.53
2018-12-19T12:05:41.843Z,33.03
2018-12-19T12:08:11.025Z,34.27
2018-12-19T12:10:40.192Z,33.53
2018-12-19T12:13:09.412Z,32.07
2018-12-19T12:15:38.643Z,33.03
2018-12-19T12:18:07.814Z,36.07
2018-12-19T12:20:37.028Z,36.63
2018-12-19T12:23:06.252Z,39.00
2018-12-19T12:25:35.430Z,48.47
2018-12-19T12:28:04.719Z,43.63
2018-12-19T12:30:33.967Z,45.67
2018-12-19T12:33:03.166Z,47.70
2018-12-19T12:35:32.461Z,49.27
2018-12-19T12:38:01.706Z,50.00
2018-12-19T12:40:30.949Z,48.40
2018-12-19T12:43:00.184Z,47.83
2018-12-19T12:45:29.614Z,43.23
2018-12-19T12:47:59.018Z,46.60
2018-12-19T12:50:28.254Z,46.80
2018-12-19T12:52:57.431Z,45.63
2018-12-19T12:55:26.632Z,42.27
2018-12-19T12:57:55.817Z,42.90
2018-12-19T13:00:25.001Z,46.33
2018-12-19T13:02:54.265Z,44.47
2018-12-19T13:05:24.835Z,44.07
2018-12-19T13:07:54.063Z,49.33
2018-12-19T13:10:23.257Z,48.60
2018-12-19T13:12:52.523Z,49.30
2018-12-19T13:15:27.098Z,48.30
2018-12-19T13:17:56.539Z,48.67
2018-12-19T13:20:25.751Z,46.07
2018-12-19T13:22:55.001Z,41.83
2018-12-19T13:25:24.223Z,44.83
2018-12-19T13:27:53.473Z,49.50
2018-12-19T13:30:22.720Z,47.73
2018-12-19T13:32:51.944Z,49.30
2018-12-19T13:35:21.164Z,44.37
2018-12-19T13:37:50.347Z,46.23
2018-12-19T13:40:19.556Z,53.77
2018-12-19T13:42:48.822Z,56.53
2018-12-19T13:45:18.040Z,54.00
2018-12-19T13:47:47.320Z,52.70
2018-12-19T13:50:16.586Z,54.40
2018-12-19T13:52:45.811Z,51.33
2018-12-19T13:55:15.061Z,54.03
2018-12-19T13:57:44.288Z,49.53
2018-12-19T14:00:13.525Z,44.03
2018-12-19T14:02:42.718Z,44.77
2018-12-19T14:05:11.936Z,44.00
2018-12-19T14:07:41.357Z,44.27
2018-12-19T14:10:10.673Z,46.93
2018-12-19T14:12:40.911Z,40.67
2018-12-19T14:15:10.154Z,41.57
2018-12-19T14:17:39.419Z,37.73
2018-12-19T14:20:09.199Z,36.27
2018-12-19T14:22:38.620Z,36.47
2018-12-19T14:25:07.900Z,34.90
2018-12-19T14:27:37.159Z,30.50
2018-12-19T14:30:08.245Z,29.33
2018-12-19T14:32:37.830Z,28.33
2018-12-19T14:35:07.333Z,28.63
2018-12-19T14:37:36.554Z,36.70
2018-12-19T14:40:06.011Z,33.90
2018-12-19T14:42:35.276Z,42.53
2018-12-19T14:45:05.122Z,41.60
2018-12-19T14:47:34.333Z,39.17
2018-12-19T14:50:04.428Z,36.53
2018-12-19T14:52:33.869Z,35.87
2018-12-19T14:55:04.171Z,37.13
2018-12-19T14:57:33.439Z,32.23
2018-12-19T15:00:02.687Z,25.47
2018-12-19T15:02:33.006Z,31.07
2018-12-19T15:05:02.237Z,29.90
2018-12-19T15:07:31.464Z,23.60
2018-12-19T15:10:01.930Z,22.20
2018-12-19T15:12:31.254Z,17.85
2018-12-19T15:15:03.945Z,17.62
2018-12-19T15:17:33.376Z,16.55
2018-12-19T15:20:13.181Z,15.38
2018-12-19T15:22:42.505Z,11.33
2018-12-19T15:25:11.753Z,10.90
2018-12-19T15:27:40.992Z,12.07
2018-12-19T15:30:10.304Z,10.28
2018-12-19T15:32:40.394Z,9.33
2018-12-19T15:35:09.867Z,9.88
2018-12-19T15:37:39.065Z,9.85
2018-12-19T15:40:08.432Z,8.10
2018-12-19T15:42:37.613Z,9.10
2018-12-19T15:45:06.957Z,8.45
2018-12-19T15:47:36.239Z,7.12
2018-12-19T15:50:07.243Z,8.08
2018-12-19T15:52:36.653Z,7.03
2018-12-19T15:55:06.878Z,6.70
2018-12-19T15:57:36.395Z,7.37
2018-12-19T16:00:10.164Z,10.08
2018-12-19T16:02:39.484Z,10.98
2018-12-19T16:05:08.825Z,11.35
2018-12-19T16:07:40.897Z,10.15
2018-12-19T16:10:13.313Z,9.48
2018-12-19T16:12:43.483Z,8.53
2018-12-19T16:15:12.974Z,7.87
2018-12-19T16:17:42.278Z,6.97
2018-12-19T16:20:11.481Z,7.20
2018-12-19T16:22:40.793Z,8.75
2018-12-19T16:25:09.972Z,10.72
2018-12-19T16:27:39.187Z,13.68
2018-12-19T16:30:09.606Z,10.40
2018-12-19T16:32:42.809Z,6.87
2018-12-19T16:35:12.146Z,9.50
2018-12-19T16:37:41.353Z,7.65
2018-12-19T16:40:10.696Z,6.83
2018-12-19T16:42:45.882Z,7.72
2018-12-19T16:45:11.778Z,5.30
2018-12-19T16:47:41.120Z,6.12
2018-12-19T16:50:10.459Z,5.40
2018-12-19T16:52:39.769Z,4.12
2018-12-19T16:55:09.444Z,4.53
2018-12-19T16:57:38.677Z,5.70
2018-12-19T17:00:09.726Z,4.83
2018-12-19T17:02:38.988Z,4.58
2018-12-19T17:05:08.252Z,4.47
2018-12-19T17:07:37.551Z,4.15
2018-12-19T17:10:07.076Z,5.03
2018-12-19T17:12:38.363Z,8.50
2018-12-19T17:15:08.602Z,6.15
2018-12-19T17:17:43.985Z,6.78
2018-12-19T17:20:13.479Z,6.78
2018-12-19T17:22:44.783Z,7.70
2018-12-19T17:25:14.122Z,8.48
2018-12-19T17:27:43.539Z,8.55
2018-12-19T17:30:12.876Z,5.70
2018-12-19T17:32:42.295Z,6.10
2018-12-19T17:35:12.734Z,8.53
2018-12-19T17:37:42.076Z,6.62
2018-12-19T17:40:11.696Z,5.87
2018-12-19T17:42:40.993Z,5.83
2018-12-19T17:45:10.307Z,6.28
2018-12-19T17:47:39.650Z,6.78
2018-12-19T17:50:09.054Z,8.55
2018-12-19T17:52:38.356Z,8.33
2018-12-19T17:55:08.339Z,9.60
2018-12-19T17:57:37.667Z,9.28
2018-12-19T18:00:07.154Z,10.68
2018-12-19T18:02:37.921Z,10.50
2018-12-19T18:05:07.629Z,7.53
2018-12-19T18:07:37.531Z,9.73
2018-12-19T18:10:07.302Z,9.38
2018-12-19T18:12:36.657Z,13.80
2018-12-19T18:15:06.560Z,8.93
2018-12-19T18:17:36.066Z,10.15
2018-12-19T18:20:07.053Z,7.08
2018-12-19T18:22:36.560Z,6.37
2018-12-19T18:25:06.072Z,5.85
2018-12-19T18:27:35.493Z,6.62
2018-12-19T18:30:05.134Z,5.60
2018-12-19T18:32:34.448Z,3.75
2018-12-19T18:35:03.838Z,4.70
2018-12-19T18:37:34.741Z,5.87
2018-12-19T18:40:05.520Z,6.12
2018-12-19T18:42:35.076Z,6.78
2018-12-19T18:45:11.708Z,6.78
2018-12-19T18:47:36.974Z,6.08
2018-12-19T18:50:08.868Z,6.22
2018-12-19T18:52:38.482Z,6.15
2018-12-19T18:55:08.223Z,6.95
2018-12-19T18:57:37.600Z,7.58
2018-12-19T19:00:09.182Z,8.00
2018-12-19T19:02:38.551Z,7.75
2018-12-19T19:05:08.132Z,8.40
2018-12-19T19:07:37.609Z,7.75
2018-12-19T19:10:08.301Z,7.50
2018-12-19T19:12:37.608Z,7.22
2018-12-19T19:15:10.575Z,7.75
2018-12-19T19:17:40.301Z,9.63
2018-12-19T19:20:10.842Z,14.23
2018-12-19T19:22:40.194Z,16.93
2018-12-19T19:25:13.079Z,6.60
2018-12-19T19:27:44.163Z,5.28
2018-12-19T19:30:14.736Z,5.50
2018-12-19T19:32:44.002Z,7.25
2018-12-19T19:35:13.230Z,4.72
2018-12-19T19:37:44.451Z,6.17
2018-12-19T19:40:13.888Z,6.03
2018-12-19T19:42:43.216Z,6.22
2018-12-19T19:45:12.529Z,8.10
2018-12-19T19:47:42.083Z,6.92
2018-12-19T19:50:13.150Z,7.33
2018-12-19T19:52:44.269Z,8.20
2018-12-19T19:55:14.979Z,8.38
2018-12-19T19:57:44.333Z,6.83
2018-12-19T20:00:13.677Z,5.97
2018-12-19T20:02:43.137Z,6.72
2018-12-19T20:05:13.363Z,6.47
2018-12-19T20:07:42.936Z,6.85
2018-12-19T20:10:12.617Z,5.50
2018-12-19T20:12:41.913Z,5.45
2018-12-19T20:15:11.246Z,5.25
2018-12-19T20:24:25.495Z,5.42
2018-12-19T20:26:54.798Z,6.37
2018-12-19T20:29:24.178Z,5.90
2018-12-19T20:31:53.463Z,6.28
2018-12-19T20:34:22.733Z,6.90
2018-12-19T20:36:52.029Z,6.35
2018-12-19T20:39:21.345Z,7.55
2018-12-19T20:41:50.648Z,8.38
2018-12-19T20:44:21.334Z,7.30
2018-12-19T20:46:50.698Z,7.50
2018-12-19T20:49:20.945Z,7.50
2018-12-19T20:51:50.236Z,9.40
2018-12-19T20:54:19.494Z,8.20
2018-12-19T20:56:48.772Z,8.28
2018-12-19T20:59:18.121Z,9.23
2018-12-19T21:01:47.481Z,9.38
2018-12-19T21:04:16.871Z,9.93
2018-12-19T21:06:46.122Z,10.75
2018-12-19T21:09:15.631Z,12.75
2018-12-19T21:11:45.397Z,12.05
2018-12-19T21:14:14.829Z,11.15
2018-12-19T21:16:49.334Z,12.03
2018-12-19T21:19:18.745Z,12.23
2018-12-19T21:21:50.019Z,12.82
2018-12-19T21:24:19.478Z,13.60
2018-12-19T21:26:48.805Z,12.58
2018-12-19T21:29:18.068Z,13.83
2018-12-19T21:31:47.383Z,12.80
2018-12-19T21:34:16.916Z,13.80
2018-12-19T21:36:46.210Z,14.50
2018-12-19T21:39:15.425Z,14.90
2018-12-19T21:41:44.716Z,14.15
2018-12-19T21:44:13.992Z,11.70
2018-12-19T21:46:43.222Z,12.60
2018-12-19T21:49:14.063Z,13.65
2018-12-19T21:51:43.327Z,11.65
2018-12-19T21:54:12.621Z,11.53
2018-12-19T21:56:41.897Z,10.82
2018-12-19T21:59:11.425Z,12.07
2018-12-19T22:01:44.464Z,13.08
2018-12-19T22:04:13.922Z,11.93
2018-12-19T22:06:43.780Z,13.65
2018-12-19T22:09:14.746Z,14.10
2018-12-19T22:11:43.999Z,14.20
2018-12-19T22:14:13.256Z,15.60
2018-12-19T22:16:47.926Z,17.37
2018-12-19T22:19:17.463Z,18.20
2018-12-19T22:21:46.736Z,19.70
2018-12-19T22:24:16.036Z,18.25
2018-12-19T22:26:45.235Z,22.62
2018-12-19T22:29:14.584Z,24.90
2018-12-19T22:31:43.802Z,22.75
2018-12-19T22:34:13.120Z,26.20
2018-12-19T22:36:42.342Z,24.12
2018-12-19T22:39:13.833Z,25.97
2018-12-19T22:41:43.015Z,26.63
2018-12-19T22:44:12.199Z,26.30
2018-12-19T22:46:41.460Z,25.53
2018-12-19T22:49:10.780Z,25.07
2018-12-19T22:51:40.067Z,26.10
2018-12-19T22:54:09.404Z,23.47
2018-12-19T22:56:38.620Z,21.73
2018-12-19T22:59:07.835Z,20.60
2018-12-19T23:01:42.595Z,21.93
2018-12-19T23:04:11.960Z,21.17
2018-12-19T23:06:41.146Z,20.37
2018-12-19T23:09:10.408Z,19.90
2018-12-19T23:11:39.744Z,22.80
2018-12-19T23:14:15.342Z,22.40
2018-12-19T23:16:41.923Z,24.50
2018-12-19T23:19:11.298Z,25.47
2018-12-19T23:21:40.607Z,24.30
2018-12-19T23:24:09.924Z,23.37
2018-12-19T23:26:39.178Z,21.47
2018-12-19T23:29:10.265Z,21.10
2018-12-19T23:31:39.575Z,21.63
2018-12-19T23:34:08.817Z,22.27
2018-12-19T23:36:38.132Z,20.00
2018-12-19T23:39:07.897Z,21.23
2018-12-19T23:41:37.185Z,23.63
2018-12-19T23:44:06.377Z,19.87
2018-12-19T23:46:35.734Z,19.63
2018-12-19T23:49:05.165Z,20.73
2018-12-19T23:51:34.778Z,22.37
2018-12-19T23:54:04.097Z,19.40
2018-12-19T23:56:33.352Z,21.07
2018-12-19T23:59:02.708Z,19.93
